Time;durP1;ratioP1;P1;durP2;ratioP2;P2;SDS_P1;SDS_P2;PMS_P1;PMS_P2;Temp;Humidity;BMP_temperature;BMP_pressure;BME280_temperature;BME280_humidity;BME280_pressure;Samples;Min_cycle;Max_cycle;Signal;HPM_P1;HPM_P2
2022/08/24 00:00:33;;;;;;;7.47;4.97;;;22.20;99.90;;;;;;5060362;28;20503;-81
2022/08/24 00:03:01;;;;;;;7.33;3.80;;;22.20;99.90;;;;;;5060097;28;20452;-80
2022/08/24 00:05:28;;;;;;;7.10;4.50;;;22.20;99.90;;;;;;5057376;28;20444;-79
2022/08/24 00:07:55;;;;;;;5.40;4.10;;;22.10;99.90;;;;;;5055543;28;20870;-80
2022/08/24 00:10:22;;;;;;;5.63;4.27;;;22.10;99.90;;;;;;5055293;28;20482;-80
2022/08/24 00:12:49;;;;;;;8.20;3.97;;;22.10;99.90;;;;;;5055093;28;20535;-78
2022/08/24 00:15:17;;;;;;;5.73;4.03;;;22.10;99.90;;;;;;5055169;28;20496;-79
2022/08/24 00:17:45;;;;;;;8.17;3.73;;;22.10;99.90;;;;;;5055113;28;20448;-80
2022/08/24 00:20:12;;;;;;;7.47;3.87;;;22.10;99.90;;;;;;5068568;28;20557;-79
2022/08/24 00:22:39;;;;;;;9.17;4.67;;;22.00;99.90;;;;;;5075089;28;20530;-78
2022/08/24 00:25:08;;;;;;;7.13;4.47;;;22.00;99.90;;;;;;5074227;28;21010;-80
2022/08/24 00:27:35;;;;;;;6.83;3.60;;;22.00;99.90;;;;;;5075339;28;20526;-80
2022/08/24 00:30:04;;;;;;;7.20;4.00;;;21.90;99.90;;;;;;5075481;28;20832;-79
2022/08/24 00:32:31;;;;;;;7.17;4.10;;;21.90;99.90;;;;;;5075417;28;20457;-80
2022/08/24 00:34:59;;;;;;;5.47;3.63;;;21.80;99.90;;;;;;5074218;28;20443;-78
2022/08/24 00:37:27;;;;;;;6.13;3.80;;;21.90;99.90;;;;;;5075201;28;20534;-79
2022/08/24 00:39:54;;;;;;;5.70;3.90;;;21.80;99.90;;;;;;5079772;28;20463;-79
2022/08/24 00:42:21;;;;;;;7.20;3.57;;;21.80;99.90;;;;;;5083284;28;20480;-80
2022/08/24 00:44:48;;;;;;;6.73;4.13;;;21.80;99.90;;;;;;5084314;28;20510;-79
2022/08/24 00:47:21;;;;;;;6.80;3.43;;;21.70;99.90;;;;;;5074275;28;20474;-79
2022/08/24 00:49:54;;;;;;;8.90;4.30;;;21.70;99.90;;;;;;5074442;28;20572;-80
2022/08/24 00:52:27;;;;;;;7.13;3.40;;;21.70;99.90;;;;;;5074292;28;20534;-79
2022/08/24 00:54:57;;;;;;;7.80;3.80;;;21.60;99.90;;;;;;5073714;28;20507;-80
2022/08/24 00:57:29;;;;;;;5.03;3.70;;;21.60;99.90;;;;;;5074040;28;20892;-80
2022/08/24 00:59:58;;;;;;;5.50;3.53;;;21.60;99.90;;;;;;5074167;28;20549;-80
2022/08/24 01:02:29;;;;;;;5.40;4.30;;;21.60;99.90;;;;;;5073799;28;20510;-79
2022/08/24 01:04:58;;;;;;;6.90;3.90;;;21.60;99.90;;;;;;5072955;28;20470;-80
2022/08/24 01:07:29;;;;;;;6.93;4.10;;;21.60;99.90;;;;;;5073740;28;20859;-79
2022/08/24 01:09:59;;;;;;;7.43;4.40;;;21.50;99.90;;;;;;5074081;28;21133;-80
2022/08/24 01:12:28;;;;;;;6.73;3.77;;;21.50;99.90;;;;;;5073652;28;20522;-80
2022/08/24 01:14:57;;;;;;;5.70;4.00;;;21.50;99.90;;;;;;5073649;28;20432;-80
2022/08/24 01:20:12;;;;;;;8.00;3.97;;;21.40;99.90;;;;;;5075037;28;20988;-80
2022/08/24 01:22:52;;;;;;;7.33;4.13;;;21.40;99.90;;;;;;5074088;28;20447;-79
2022/08/24 01:25:22;;;;;;;4.90;3.63;;;21.40;99.90;;;;;;5074960;28;20572;-80
2022/08/24 01:27:51;;;;;;;7.40;4.50;;;21.40;99.90;;;;;;5074708;28;20530;-81
2022/08/24 01:30:18;;;;;;;5.20;3.57;;;21.40;99.90;;;;;;5074498;28;20489;-80
2022/08/24 01:32:53;;;;;;;5.97;4.10;;;21.30;99.90;;;;;;5073777;28;20455;-79
2022/08/24 01:35:20;;;;;;;5.47;3.27;;;21.30;99.90;;;;;;5074662;28;20529;-79
2022/08/24 01:37:47;;;;;;;4.83;3.53;;;21.30;99.90;;;;;;5074217;28;20487;-81
2022/08/24 01:40:15;;;;;;;4.77;3.73;;;21.30;99.90;;;;;;5073884;28;20989;-81
2022/08/24 01:42:49;;;;;;;6.50;3.90;;;21.30;99.90;;;;;;5073834;28;20442;-79
2022/08/24 01:45:16;;;;;;;5.83;3.83;;;21.30;99.90;;;;;;5073842;28;21259;-81
2022/08/24 01:47:43;;;;;;;10.53;4.20;;;21.20;99.90;;;;;;5075090;28;20477;-81
2022/08/24 01:50:10;;;;;;;6.93;4.10;;;21.20;99.90;;;;;;5077015;28;20845;-81
2022/08/24 01:52:39;;;;;;;5.30;3.67;;;21.20;99.90;;;;;;5085758;28;20523;-81
2022/08/24 01:55:07;;;;;;;5.67;4.23;;;21.20;99.90;;;;;;5087144;28;20435;-80
2022/08/24 01:57:34;;;;;;;9.70;4.90;;;21.20;99.90;;;;;;5090192;28;20454;-80
2022/08/24 02:00:04;;;;;;;5.83;3.93;;;21.10;99.90;;;;;;5089996;28;20505;-81
2022/08/24 02:02:32;;;;;;;6.33;3.93;;;21.10;99.90;;;;;;5090516;28;20478;-80
2022/08/24 02:04:59;;;;;;;6.87;4.57;;;21.00;99.90;;;;;;5090695;28;20540;-81
2022/08/24 02:07:28;;;;;;;7.37;4.47;;;21.00;99.90;;;;;;5089551;28;20504;-80
2022/08/24 02:09:55;;;;;;;7.93;5.17;;;21.00;99.90;;;;;;5089429;28;20577;-81
2022/08/24 02:12:22;;;;;;;7.70;3.97;;;21.00;99.90;;;;;;5088602;28;20451;-81
2022/08/24 02:14:49;;;;;;;4.03;3.47;;;21.00;99.90;;;;;;5090292;28;20467;-80
2022/08/24 02:17:18;;;;;;;7.80;4.13;;;21.00;99.90;;;;;;5090584;28;20446;-81
2022/08/24 02:19:45;;;;;;;6.87;3.80;;;20.90;99.90;;;;;;5090155;28;21089;-80
2022/08/24 02:22:12;;;;;;;8.20;4.60;;;20.90;99.90;;;;;;5091708;28;20458;-80
2022/08/24 02:24:39;;;;;;;5.70;3.90;;;20.90;99.90;;;;;;5094910;28;20478;-81
2022/08/24 02:27:07;;;;;;;9.00;4.30;;;20.90;99.90;;;;;;5097170;28;20517;-80
2022/08/24 02:29:34;;;;;;;6.40;4.13;;;20.90;99.90;;;;;;5095836;28;20458;-81
2022/08/24 02:32:01;;;;;;;6.77;4.47;;;20.80;99.90;;;;;;5095560;28;20466;-81
2022/08/24 02:34:29;;;;;;;6.40;4.20;;;20.90;99.90;;;;;;5095250;28;20435;-81
2022/08/24 02:36:56;;;;;;;14.77;5.43;;;20.80;99.90;;;;;;5096045;28;20423;-81
2022/08/24 02:39:23;;;;;;;6.73;4.40;;;20.80;99.90;;;;;;5090999;28;20847;-81
2022/08/24 02:41:51;;;;;;;7.77;4.97;;;20.80;99.90;;;;;;5084470;28;20530;-79
2022/08/24 02:44:18;;;;;;;6.23;4.63;;;20.80;99.90;;;;;;5092761;28;20477;-80
2022/08/24 02:46:45;;;;;;;8.57;4.80;;;20.80;99.90;;;;;;5081137;28;20475;-80
2022/08/24 02:49:12;;;;;;;8.40;5.17;;;20.80;99.90;;;;;;5079798;28;20933;-79
2022/08/24 02:51:43;;;;;;;10.40;5.43;;;20.70;99.90;;;;;;5080272;28;20547;-81
2022/08/24 02:54:10;;;;;;;10.17;6.30;;;20.70;99.90;;;;;;5080117;28;20455;-81
2022/08/24 02:56:37;;;;;;;7.13;5.20;;;20.70;99.90;;;;;;5080470;28;20474;-81
2022/08/24 02:59:03;;;;;;;9.20;5.00;;;20.60;99.90;;;;;;5081375;28;20471;-82
2022/08/24 03:01:30;;;;;;;10.77;5.20;;;20.60;99.90;;;;;;5081661;28;20922;-81
2022/08/24 03:03:57;;;;;;;8.73;5.40;;;20.60;99.90;;;;;;5079729;28;20479;-81
2022/08/24 03:06:24;;;;;;;9.20;4.57;;;20.60;99.90;;;;;;5080267;28;20469;-81
2022/08/24 03:08:53;;;;;;;7.00;4.70;;;20.60;99.90;;;;;;5080960;28;20451;-81
2022/08/24 03:11:19;;;;;;;7.00;4.57;;;20.60;99.90;;;;;;5081144;28;20470;-81
2022/08/24 03:13:46;;;;;;;7.30;5.60;;;20.50;99.90;;;;;;5079049;28;20553;-81
2022/08/24 03:16:13;;;;;;;8.67;4.63;;;20.50;99.90;;;;;;5080088;28;20510;-80
2022/08/24 03:18:41;;;;;;;6.37;4.43;;;20.50;99.90;;;;;;5080109;28;20526;-81
2022/08/24 03:21:09;;;;;;;7.23;5.00;;;20.50;99.90;;;;;;5080574;28;20445;-82
2022/08/24 03:23:36;;;;;;;7.37;5.17;;;20.40;99.90;;;;;;5079850;28;20470;-81
2022/08/24 03:26:05;;;;;;;7.37;4.83;;;20.40;99.90;;;;;;5080576;28;20518;-82
2022/08/24 03:28:32;;;;;;;9.97;4.63;;;20.40;99.90;;;;;;5080433;28;20459;-82
2022/08/24 03:30:59;;;;;;;6.27;4.40;;;20.40;99.90;;;;;;5081606;28;20502;-80
2022/08/24 03:33:26;;;;;;;6.43;4.37;;;20.30;99.90;;;;;;5078758;28;20455;-79
2022/08/24 03:35:53;;;;;;;6.27;4.67;;;20.40;99.90;;;;;;5080495;28;20471;-80
2022/08/24 03:38:20;;;;;;;6.10;4.17;;;20.30;99.90;;;;;;5079310;28;20487;-80
2022/08/24 03:40:47;;;;;;;5.50;4.37;;;20.30;99.90;;;;;;5079605;28;20911;-81
2022/08/24 03:45:57;;;;;;;7.87;4.83;;;20.30;99.90;;;;;;5077944;28;20886;-82
2022/08/24 03:48:24;;;;;;;7.57;4.20;;;20.30;99.90;;;;;;5078591;28;20451;-81
2022/08/24 03:50:51;;;;;;;7.80;4.83;;;20.30;99.90;;;;;;5078550;28;20562;-81
2022/08/24 03:53:18;;;;;;;9.43;4.57;;;20.30;99.90;;;;;;5078994;28;20457;-80
2022/08/24 03:55:45;;;;;;;5.10;4.07;;;20.30;99.90;;;;;;5080500;28;20447;-80
2022/08/24 03:58:12;;;;;;;5.67;4.60;;;20.20;99.90;;;;;;5079596;28;20443;-81
2022/08/24 04:00:41;;;;;;;7.60;4.40;;;20.20;99.90;;;;;;5079531;28;20558;-81
2022/08/24 04:03:09;;;;;;;5.60;3.70;;;20.20;99.90;;;;;;5079037;28;20458;-81
2022/08/24 04:05:36;;;;;;;6.83;4.30;;;20.20;99.90;;;;;;5079371;28;20866;-81
2022/08/24 04:08:03;;;;;;;7.33;3.93;;;20.20;99.90;;;;;;5080020;28;20527;-80
2022/08/24 04:10:30;;;;;;;5.87;3.90;;;20.20;99.90;;;;;;5079916;28;20469;-81
2022/08/24 04:13:00;;;;;;;6.83;4.83;;;20.20;99.90;;;;;;5079749;28;20546;-81
2022/08/24 04:15:27;;;;;;;6.53;4.40;;;20.10;99.90;;;;;;5079703;28;20447;-80
2022/08/24 04:17:55;;;;;;;8.13;3.90;;;20.10;99.90;;;;;;5078843;28;20690;-81
2022/08/24 04:20:22;;;;;;;7.03;4.70;;;20.10;99.90;;;;;;5078957;28;20518;-81
2022/08/24 04:22:50;;;;;;;7.30;4.43;;;20.10;99.90;;;;;;5078522;28;20788;-80
2022/08/24 04:25:17;;;;;;;8.27;4.43;;;20.10;99.90;;;;;;5078938;28;20882;-81
2022/08/24 04:27:44;;;;;;;6.50;3.87;;;20.10;99.90;;;;;;5080491;28;20477;-81
2022/08/24 04:30:13;;;;;;;6.07;4.23;;;20.10;99.90;;;;;;5077937;28;20546;-81
2022/08/24 04:32:39;;;;;;;7.10;4.77;;;20.10;99.90;;;;;;5078759;28;20462;-81
2022/08/24 04:35:08;;;;;;;6.10;4.50;;;20.10;99.90;;;;;;5077823;28;20451;-81
2022/08/24 04:37:35;;;;;;;7.20;4.00;;;20.00;99.90;;;;;;5079890;28;20479;-81
2022/08/24 04:40:03;;;;;;;7.30;4.00;;;20.00;99.90;;;;;;5077254;28;20475;-80
2022/08/24 04:42:31;;;;;;;7.60;5.73;;;20.00;99.90;;;;;;5082222;28;20848;-84
2022/08/24 04:44:58;;;;;;;8.90;4.73;;;20.00;99.90;;;;;;5091033;28;20475;-82
2022/08/24 04:47:25;;;;;;;10.43;5.37;;;20.00;99.90;;;;;;5079124;28;20516;-81
2022/08/24 04:49:52;;;;;;;5.93;4.50;;;20.00;99.90;;;;;;5079008;28;20877;-82
2022/08/24 04:52:20;;;;;;;9.00;5.57;;;20.00;99.90;;;;;;5080518;28;20499;-82
2022/08/24 04:54:47;;;;;;;8.80;4.70;;;20.00;99.90;;;;;;5091757;28;20486;-82
2022/08/24 04:57:14;;;;;;;9.80;5.03;;;20.00;99.90;;;;;;5070105;22;20481;-85
2022/08/24 04:59:42;;;;;;;7.10;4.47;;;20.00;99.90;;;;;;5016020;28;20484;-84
2022/08/24 05:02:09;;;;;;;7.50;4.80;;;20.00;99.90;;;;;;5015453;28;20810;-86
2022/08/24 05:04:37;;;;;;;7.80;5.90;;;20.00;99.90;;;;;;5015516;28;20532;-85
2022/08/24 05:07:04;;;;;;;6.03;4.60;;;20.00;99.90;;;;;;5032676;28;20476;-87
2022/08/24 05:09:33;;;;;;;6.80;4.90;;;20.10;99.90;;;;;;5025710;28;20540;-86
2022/08/24 05:12:00;;;;;;;6.30;4.40;;;20.10;99.90;;;;;;5024754;28;20477;-83
2022/08/24 05:14:27;;;;;;;7.33;5.03;;;20.10;99.90;;;;;;5032854;28;20447;-83
2022/08/24 05:16:59;;;;;;;9.07;4.47;;;20.10;99.90;;;;;;5031727;28;20476;-84
2022/08/24 05:19:27;;;;;;;5.63;4.83;;;20.10;99.90;;;;;;5032513;28;20469;-84
2022/08/24 05:21:53;;;;;;;7.60;4.97;;;20.10;99.90;;;;;;5024721;28;20876;-83
2022/08/24 05:24:20;;;;;;;6.60;4.63;;;20.10;99.90;;;;;;5024288;28;20866;-84
2022/08/24 05:26:50;;;;;;;7.30;4.43;;;20.20;99.90;;;;;;5021216;28;20491;-84
2022/08/24 05:29:20;;;;;;;6.53;4.20;;;20.20;99.90;;;;;;5021996;28;20445;-86
2022/08/24 05:31:47;;;;;;;6.17;5.10;;;20.20;99.90;;;;;;5024973;28;20448;-83
2022/08/24 05:34:14;;;;;;;8.47;4.40;;;20.20;99.90;;;;;;5023901;28;20983;-84
2022/08/24 05:36:42;;;;;;;5.60;4.17;;;20.30;99.90;;;;;;5020976;28;20461;-83
2022/08/24 05:39:11;;;;;;;6.30;4.47;;;20.30;99.90;;;;;;5019779;28;20564;-84
2022/08/24 05:41:41;;;;;;;6.73;4.30;;;20.30;99.90;;;;;;5020435;28;20797;-83
2022/08/24 05:44:10;;;;;;;5.20;4.10;;;20.40;99.90;;;;;;5020384;28;20434;-83
2022/08/24 05:46:37;;;;;;;7.10;4.67;;;20.40;99.90;;;;;;5024350;28;20576;-84
2022/08/24 05:49:04;;;;;;;7.13;5.10;;;20.50;99.90;;;;;;5023438;28;20544;-84
2022/08/24 05:51:31;;;;;;;7.53;5.00;;;20.50;99.90;;;;;;5023949;28;20445;-82
2022/08/24 05:54:03;;;;;;;6.80;5.10;;;20.60;99.90;;;;;;5020593;28;20444;-82
2022/08/24 05:56:31;;;;;;;7.37;4.33;;;20.60;99.90;;;;;;5022341;28;20436;-82
2022/08/24 05:58:58;;;;;;;7.80;4.70;;;20.70;99.90;;;;;;5022506;28;20524;-84
2022/08/24 06:01:30;;;;;;;7.43;4.37;;;20.70;99.90;;;;;;5021569;28;20531;-80
2022/08/24 06:03:58;;;;;;;8.03;4.40;;;20.80;99.90;;;;;;5021990;28;20464;-81
2022/08/24 06:06:26;;;;;;;6.63;4.43;;;20.90;99.90;;;;;;5017778;28;20480;-81
2022/08/24 06:08:55;;;;;;;6.80;4.13;;;20.90;99.90;;;;;;5022020;28;20456;-82
2022/08/24 06:11:24;;;;;;;5.30;3.93;;;20.90;99.90;;;;;;5021347;28;20460;-83
2022/08/24 06:13:52;;;;;;;7.30;4.30;;;21.00;99.90;;;;;;5019397;28;20544;-81
2022/08/24 06:16:19;;;;;;;7.27;4.07;;;21.00;99.90;;;;;;5022347;28;20524;-82
2022/08/24 06:18:48;;;;;;;6.50;4.30;;;21.10;99.90;;;;;;5021713;28;20450;-80
2022/08/24 06:21:21;;;;;;;7.37;4.80;;;21.10;99.90;;;;;;5020138;28;20441;-82
2022/08/24 06:23:57;;;;;;;9.30;4.80;;;21.10;99.90;;;;;;5019276;28;20461;-80
2022/08/24 06:31:52;;;;;;;8.73;4.27;;;21.30;99.90;;;;;;5009214;28;20479;-82
2022/08/24 06:34:20;;;;;;;10.70;4.20;;;21.30;99.90;;;;;;5037747;28;20433;-82
2022/08/24 06:36:47;;;;;;;6.70;4.63;;;21.40;99.90;;;;;;5033605;28;20544;-85
2022/08/24 06:39:14;;;;;;;9.10;4.40;;;21.40;99.90;;;;;;5037238;28;20451;-82
2022/08/24 06:41:41;;;;;;;6.33;4.00;;;21.40;99.90;;;;;;5038100;28;20524;-83
2022/08/24 06:44:08;;;;;;;10.80;4.20;;;21.50;99.90;;;;;;5038325;28;20479;-83
2022/08/24 06:46:36;;;;;;;5.70;4.17;;;21.50;99.90;;;;;;5037794;28;20492;-81
2022/08/24 06:49:03;;;;;;;12.83;4.73;;;21.50;99.90;;;;;;5022856;28;20572;-83
2022/08/24 06:51:31;;;;;;;7.70;4.13;;;21.60;99.90;;;;;;5034803;28;20827;-83
2022/08/24 06:53:58;;;;;;;6.20;4.20;;;21.60;99.90;;;;;;5036719;28;20517;-83
2022/08/24 06:56:25;;;;;;;9.60;4.30;;;21.60;99.90;;;;;;5038506;28;20440;-83
2022/08/24 06:58:52;;;;;;;6.93;3.63;;;21.60;99.90;;;;;;5037512;28;21820;-83
2022/08/24 07:01:22;;;;;;;5.60;4.33;;;21.60;99.90;;;;;;5033527;28;20838;-82
2022/08/24 07:03:50;;;;;;;7.30;4.10;;;21.60;99.90;;;;;;5037437;28;20472;-83
2022/08/24 07:06:17;;;;;;;6.33;3.83;;;21.60;99.90;;;;;;5029804;28;20508;-83
2022/08/24 07:08:46;;;;;;;8.07;4.37;;;21.60;99.90;;;;;;5037817;28;20453;-83
2022/08/24 07:11:16;;;;;;;6.10;3.70;;;21.60;99.90;;;;;;5028716;28;20450;-83
2022/08/24 07:13:44;;;;;;;4.97;3.50;;;21.70;99.90;;;;;;5030764;28;20528;-83
2022/08/24 07:16:10;;;;;;;6.17;3.57;;;21.70;99.90;;;;;;5027251;28;20434;-83
2022/08/24 07:18:38;;;;;;;6.90;4.00;;;21.70;99.90;;;;;;5034141;28;20507;-84
2022/08/24 07:21:05;;;;;;;8.50;4.20;;;21.80;99.90;;;;;;5038128;28;20445;-83
2022/08/24 07:23:32;;;;;;;6.50;4.27;;;21.90;99.90;;;;;;5038280;28;20449;-82
2022/08/24 07:26:07;;;;;;;5.67;3.80;;;21.90;99.90;;;;;;5038137;28;20571;-84
2022/08/24 07:28:37;;;;;;;8.20;4.33;;;22.00;99.90;;;;;;5038769;28;20503;-84
2022/08/24 07:31:10;;;;;;;8.60;4.30;;;22.10;99.90;;;;;;5038293;28;20459;-84
2022/08/24 07:33:37;;;;;;;8.40;3.70;;;22.20;99.90;;;;;;5037847;28;20476;-83
2022/08/24 07:36:05;;;;;;;6.80;3.80;;;22.30;99.90;;;;;;5038516;28;20460;-84
2022/08/24 07:38:32;;;;;;;5.63;3.27;;;22.30;99.90;;;;;;5036192;28;20540;-88
2022/08/24 07:40:59;;;;;;;8.20;4.20;;;22.50;99.90;;;;;;5034465;28;20794;-87
2022/08/24 07:43:28;;;;;;;7.37;3.50;;;22.60;99.90;;;;;;5033706;28;20532;-87
2022/08/24 07:45:55;;;;;;;6.23;3.87;;;22.60;99.90;;;;;;5033919;28;21028;-87
2022/08/24 07:48:22;;;;;;;8.20;3.77;;;22.70;99.90;;;;;;5034166;28;20963;-87
2022/08/24 07:50:49;;;;;;;6.90;3.43;;;22.80;99.90;;;;;;5033899;28;20495;-86
2022/08/24 07:53:29;;;;;;;4.50;2.70;;;22.80;99.90;;;;;;5031152;28;20470;-87
2022/08/24 07:55:56;;;;;;;4.93;3.10;;;22.90;99.90;;;;;;5029251;28;20536;-87
2022/08/24 07:58:23;;;;;;;6.17;3.20;;;23.00;99.90;;;;;;5029132;28;20563;-87
2022/08/24 08:00:52;;;;;;;8.33;3.30;;;23.10;99.90;;;;;;5031091;28;21021;-87
2022/08/24 08:03:20;;;;;;;6.30;3.00;;;23.20;99.90;;;;;;5033584;28;20484;-87
2022/08/24 08:05:48;;;;;;;4.20;2.80;;;23.30;99.90;;;;;;5041626;28;20488;-90
2022/08/24 08:08:15;;;;;;;6.03;3.53;;;23.40;99.90;;;;;;5043028;28;20461;-87
2022/08/24 08:10:42;;;;;;;8.60;3.30;;;23.50;99.90;;;;;;5037289;28;20541;-85
2022/08/24 08:13:09;;;;;;;8.27;3.57;;;23.60;99.90;;;;;;5035731;28;20534;-85
2022/08/24 08:15:36;;;;;;;6.90;3.13;;;23.70;99.90;;;;;;5028831;28;20464;-85
2022/08/24 08:18:04;;;;;;;7.77;4.53;;;23.70;99.90;;;;;;5020739;28;20469;-85
2022/08/24 08:20:31;;;;;;;4.13;2.97;;;23.80;99.90;;;;;;5021504;28;20480;-86
2022/08/24 08:25:47;;;;;;;8.10;3.33;;;24.00;99.90;;;;;;5036078;28;20492;-85
2022/08/24 08:28:15;;;;;;;8.90;3.43;;;24.00;99.90;;;;;;5037077;28;20468;-85
2022/08/24 08:30:42;;;;;;;6.00;3.37;;;24.10;99.90;;;;;;5036633;28;20448;-86
2022/08/24 08:33:11;;;;;;;8.50;2.40;;;24.30;99.90;;;;;;5035137;28;20479;-86
2022/08/24 08:35:37;;;;;;;5.53;3.20;;;24.30;99.90;;;;;;5035850;28;20491;-85
2022/08/24 08:38:06;;;;;;;6.93;2.87;;;24.40;99.90;;;;;;5035058;28;20866;-85
2022/08/24 08:40:47;;;;;;;10.33;3.50;;;24.50;99.90;;;;;;5034911;28;20451;-85
2022/08/24 08:43:37;;;;;;;5.30;3.40;;;24.70;99.90;;;;;;5035382;28;20421;-86
2022/08/24 08:46:21;;;;;;;6.73;3.40;;;24.90;99.90;;;;;;5034536;28;20465;-86
2022/08/24 08:49:10;;;;;;;6.83;3.27;;;25.20;99.90;;;;;;5034297;28;20498;-86
2022/08/24 08:52:05;;;;;;;8.63;2.90;;;25.40;99.90;;;;;;5033964;28;20501;-86
2022/08/24 08:54:54;;;;;;;6.57;2.93;;;25.60;99.90;;;;;;5033268;28;20503;-87
2022/08/24 08:57:49;;;;;;;7.53;2.67;;;25.80;99.90;;;;;;5033987;28;20527;-86
2022/08/24 09:00:21;;;;;;;8.03;3.27;;;26.10;99.90;;;;;;5033319;28;20523;-87
2022/08/24 09:03:04;;;;;;;6.43;3.07;;;26.30;99.90;;;;;;5033603;28;20441;-86
2022/08/24 09:06:03;;;;;;;8.40;3.00;;;26.40;99.90;;;;;;5033007;28;21181;-87
2022/08/24 09:08:52;;;;;;;5.50;2.43;;;26.60;99.90;;;;;;5032921;28;20469;-87
2022/08/24 09:11:31;;;;;;;5.70;2.37;;;26.90;99.90;;;;;;5032780;28;20449;-86
2022/08/24 09:14:26;;;;;;;8.17;2.50;;;27.10;99.90;;;;;;5032896;28;20444;-87
2022/08/24 09:17:06;;;;;;;7.80;2.90;;;27.30;99.90;;;;;;5033319;28;20468;-86
2022/08/24 09:19:45;;;;;;;6.40;2.30;;;27.60;99.90;;;;;;5033030;28;20949;-87
2022/08/24 09:22:15;;;;;;;7.60;3.07;;;27.80;99.90;;;;;;5013791;28;20917;-86
2022/08/24 09:25:05;;;;;;;5.50;2.57;;;27.90;99.90;;;;;;5013049;28;20833;-87
2022/08/24 09:27:43;;;;;;;4.40;2.10;;;28.20;99.90;;;;;;5023595;28;20496;-87
2022/08/24 09:30:17;;;;;;;5.43;2.73;;;28.40;99.90;;;;;;5033371;28;20532;-87
2022/08/24 09:33:07;;;;;;;6.70;3.30;;;28.70;99.90;;;;;;5032926;28;20535;-86
2022/08/24 09:35:53;;;;;;;4.83;2.40;;;28.90;99.90;;;;;;5032803;28;20440;-88
2022/08/24 09:38:34;;;;;;;6.03;3.33;;;29.10;99.90;;;;;;5032853;28;20473;-87
2022/08/24 09:41:22;;;;;;;5.37;2.47;;;29.40;99.90;;;;;;5033205;28;20451;-86
2022/08/24 09:44:21;;;;;;;6.60;3.23;;;29.60;99.90;;;;;;5032781;28;20882;-87
2022/08/24 09:47:19;;;;;;;14.43;2.87;;;29.90;99.90;;;;;;5019788;28;20572;-85
2022/08/24 09:50:34;;;;;;;8.43;2.80;;;30.10;99.90;;;;;;5039554;28;20435;-89
2022/08/24 09:53:40;;;;;;;4.27;2.10;;;30.20;99.90;;;;;;5015910;28;20453;-89
2022/08/24 09:56:23;;;;;;;4.77;2.37;;;30.60;99.90;;;;;;5000874;28;20444;-86
2022/08/24 09:59:11;;;;;;;6.73;2.30;;;30.70;99.90;;;;;;5035461;28;20643;-84
2022/08/24 10:02:00;;;;;;;4.80;2.03;;;30.80;99.90;;;;;;5040064;28;20437;-85
2022/08/24 10:04:35;;;;;;;3.93;1.93;;;31.00;99.90;;;;;;5039335;28;20810;-85
2022/08/24 10:07:14;;;;;;;6.10;2.37;;;31.30;99.90;;;;;;5039174;28;20499;-85
2022/08/24 10:10:13;;;;;;;5.17;2.90;;;31.40;99.90;;;;;;5039106;28;20460;-85
2022/08/24 10:13:02;;;;;;;5.67;1.97;;;31.60;99.90;;;;;;5019866;28;20454;-86
2022/08/24 10:15:42;;;;;;;4.97;2.37;;;31.90;99.90;;;;;;5019815;28;20453;-85
2022/08/24 10:18:41;;;;;;;7.07;2.40;;;31.90;99.90;;;;;;5037477;28;20543;-85
2022/08/24 10:21:24;;;;;;;6.20;2.47;;;31.90;99.90;;;;;;5042852;28;20878;-87
2022/08/24 10:24:12;;;;;;;6.90;2.60;;;32.10;99.90;;;;;;5040201;28;20444;-84
2022/08/24 10:26:56;;;;;;;3.30;1.70;;;32.20;99.90;;;;;;5023157;28;20485;-87
2022/08/24 10:29:48;;;;;;;6.80;1.90;;;32.40;99.90;;;;;;5035318;28;20487;-87
2022/08/24 10:32:27;;;;;;;5.20;1.93;;;32.50;99.90;;;;;;5043381;28;20487;-84
2022/08/24 10:35:08;;;;;;;4.27;2.50;;;32.50;99.90;;;;;;5041769;28;20480;-85
2022/08/24 10:41:17;;;;;;;4.83;1.90;;;32.80;99.90;;;;;;5009501;28;20428;-86
2022/08/24 10:44:27;;;;;;;3.30;2.10;;;33.10;99.90;;;;;;5025494;28;20452;-85
2022/08/24 10:46:59;;;;;;;5.60;2.10;;;33.30;99.90;;;;;;5176734;22;20580;-85
2022/08/24 10:49:54;;;;;;;4.03;2.20;;;33.20;99.90;;;;;;5022943;28;21002;-83
2022/08/24 10:53:00;;;;;;;5.70;3.00;;;33.50;99.90;;;;;;5023138;28;20480;-88
2022/08/24 10:55:33;;;;;;;7.17;2.17;;;33.80;99.90;;;;;;5022231;28;20974;-85
2022/08/24 10:58:24;;;;;;;3.07;1.77;;;33.80;99.90;;;;;;5023010;28;20932;-86
2022/08/24 11:00:58;;;;;;;7.70;2.00;;;33.50;99.90;;;;;;5022567;28;21003;-86
2022/08/24 11:03:29;;;;;;;5.77;1.87;;;33.40;99.90;;;;;;5022921;28;20433;-85
2022/08/24 11:05:57;;;;;;;3.87;2.10;;;33.70;99.90;;;;;;5015771;28;20434;-86
2022/08/24 11:08:27;;;;;;;3.37;2.10;;;33.80;99.90;;;;;;5014899;28;20481;-85
2022/08/24 11:11:11;;;;;;;4.43;2.17;;;34.00;99.90;;;;;;5000442;28;20824;-87
2022/08/24 11:13:51;;;;;;;7.67;2.60;;;33.80;99.90;;;;;;5001255;28;20463;-87
2022/08/24 11:16:25;;;;;;;4.37;2.30;;;33.80;99.90;;;;;;4999490;28;20482;-86
2022/08/24 11:19:04;;;;;;;6.63;2.50;;;33.80;99.90;;;;;;4994776;28;20454;-86
2022/08/24 11:21:46;;;;;;;6.07;2.20;;;33.90;99.90;;;;;;5003050;28;20450;-86
2022/08/24 11:24:31;;;;;;;4.53;2.50;;;34.20;99.90;;;;;;5002697;28;20426;-86
2022/08/24 11:27:03;;;;;;;4.60;2.30;;;34.20;99.90;;;;;;5012796;28;20604;-86
2022/08/24 11:30:02;;;;;;;6.00;2.37;;;34.30;99.90;;;;;;5014612;28;20454;-86
2022/08/24 11:32:32;;;;;;;6.60;2.30;;;34.50;99.90;;;;;;5045376;23;20505;-80
2022/08/24 11:35:08;;;;;;;5.73;3.30;;;34.60;99.90;;;;;;5035575;28;20547;-80
2022/08/24 11:37:38;;;;;;;6.50;2.67;;;34.70;99.90;;;;;;5040553;28;20535;-80
2022/08/24 11:40:07;;;;;;;6.90;3.67;;;34.90;99.90;;;;;;5040890;28;20544;-79
2022/08/24 11:42:50;;;;;;;6.20;2.27;;;34.90;99.90;;;;;;5039788;28;20493;-82
2022/08/24 11:45:24;;;;;;;4.57;2.20;;;35.10;99.90;;;;;;5040116;28;20467;-80
2022/08/24 11:48:04;;;;;;;6.13;2.30;;;35.00;99.90;;;;;;5040540;28;20492;-80
2022/08/24 11:50:37;;;;;;;5.13;2.13;;;35.10;99.90;;;;;;5040847;28;20980;-80
2022/08/24 11:53:13;;;;;;;5.50;2.30;;;35.10;99.90;;;;;;5039571;28;20508;-80
2022/08/24 11:55:50;;;;;;;5.23;2.27;;;35.30;99.90;;;;;;5038172;28;20948;-80
2022/08/24 11:58:27;;;;;;;5.30;2.37;;;35.40;99.90;;;;;;5023010;28;21442;-80
2022/08/24 12:00:59;;;;;;;7.50;2.60;;;35.50;99.90;;;;;;5030902;28;20477;-80
2022/08/24 12:03:48;;;;;;;5.60;2.43;;;35.60;99.90;;;;;;5030504;28;20552;-80
2022/08/24 12:06:27;;;;;;;7.40;2.93;;;35.70;99.90;;;;;;5026460;28;20452;-82
2022/08/24 12:09:02;;;;;;;6.53;2.37;;;35.80;99.90;;;;;;5027714;28;20481;-82
2022/08/24 12:11:43;;;;;;;9.33;2.60;;;36.10;99.90;;;;;;5029156;28;20936;-82
2022/08/24 12:14:18;;;;;;;8.40;3.10;;;36.10;99.90;;;;;;5029428;28;21039;-81
2022/08/24 12:16:51;;;;;;;4.33;2.60;;;36.10;99.90;;;;;;5027764;28;20539;-80
2022/08/24 12:19:22;;;;;;;12.67;2.83;;;36.20;99.90;;;;;;5030410;28;20544;-81
2022/08/24 12:21:54;;;;;;;5.43;2.73;;;36.20;99.90;;;;;;5034703;28;20465;-80
2022/08/24 12:24:27;;;;;;;4.93;2.80;;;36.30;98.70;;;;;;5036177;28;20486;-81
2022/08/24 12:27:00;;;;;;;5.93;2.60;;;36.40;98.80;;;;;;5037674;28;20496;-82
2022/08/24 12:29:30;;;;;;;3.20;1.80;;;36.30;99.20;;;;;;5037678;28;20461;-81
2022/08/24 12:32:01;;;;;;;8.07;2.27;;;36.70;99.40;;;;;;5037579;28;20543;-80
2022/08/24 12:34:44;;;;;;;8.47;2.87;;;36.50;96.40;;;;;;5037134;28;20547;-81
2022/08/24 12:37:19;;;;;;;5.10;2.73;;;36.40;98.70;;;;;;5018529;28;20545;-81
2022/08/24 12:39:54;;;;;;;6.20;2.40;;;36.50;99.90;;;;;;5019401;28;20445;-81
2022/08/24 12:42:28;;;;;;;5.60;2.33;;;36.80;99.00;;;;;;5024314;28;20507;-80
2022/08/24 12:45:00;;;;;;;5.67;2.53;;;36.90;99.00;;;;;;5039243;28;20494;-81
2022/08/24 12:47:33;;;;;;;5.37;2.77;;;37.00;91.80;;;;;;5031426;28;20535;-82
2022/08/24 12:50:05;;;;;;;5.77;2.47;;;37.10;89.50;;;;;;5033692;28;21003;-80
2022/08/24 12:53:02;;;;;;;6.87;2.50;;;36.90;92.60;;;;;;5037432;28;20465;-81
2022/08/24 12:55:53;;;;;;;5.60;2.90;;;37.00;96.50;;;;;;4999759;28;20452;-81
2022/08/24 12:58:40;;;;;;;6.30;2.37;;;36.90;94.90;;;;;;5026587;28;20896;-81
2022/08/24 13:01:08;;;;;;;5.40;2.30;;;36.90;88.10;;;;;;5026217;28;20498;-81
2022/08/24 13:03:37;;;;;;;5.23;3.63;;;36.90;95.20;;;;;;5035443;28;20503;-82
2022/08/24 13:06:10;;;;;;;6.23;2.53;;;36.90;93.60;;;;;;5038117;28;20480;-81
2022/08/24 13:08:40;;;;;;;3.67;2.10;;;37.10;97.60;;;;;;5032551;28;20911;-81
2022/08/24 13:11:12;;;;;;;4.50;2.10;;;37.20;94.20;;;;;;5031135;28;20529;-81
2022/08/24 13:13:45;;;;;;;4.93;2.20;;;37.30;96.00;;;;;;5028351;28;20484;-80
2022/08/24 13:16:32;;;;;;;3.87;3.13;;;37.30;94.70;;;;;;5032899;28;20452;-81
2022/08/24 13:19:31;;;;;;;5.07;2.33;;;37.30;94.60;;;;;;5025788;28;20970;-81
2022/08/24 13:22:00;;;;;;;4.57;2.50;;;37.30;91.80;;;;;;5036624;28;20493;-81
2022/08/24 13:25:03;;;;;;;5.60;2.57;;;37.30;96.40;;;;;;5029972;28;20462;-80
2022/08/24 13:28:02;;;;;;;6.80;2.57;;;37.40;85.40;;;;;;5033658;28;20484;-81
2022/08/24 13:30:50;;;;;;;4.00;2.40;;;37.00;89.30;;;;;;5028170;28;20532;-80